Time;durP1;ratioP1;P1;durP2;ratioP2;P2;SDS_P1;SDS_P2;PMS_P1;PMS_P2;Temp;Humidity;BMP_temperature;BMP_pressure;BME280_temperature;BME280_humidity;BME280_pressure;Samples;Min_cycle;Max_cycle;Signal;HPM_P1;HPM_P2
2021/12/22 00:01:07;;;;;;;13.40;7.87;;;0.80;73.60;;;;;;6309308;28;20194;-72
2021/12/22 00:04:08;;;;;;;12.57;8.37;;;0.80;73.60;;;;;;6312592;28;20219;-72
2021/12/22 00:07:10;;;;;;;15.13;7.50;;;0.80;72.20;;;;;;6340629;28;20184;-72
2021/12/22 00:10:11;;;;;;;9.60;7.60;;;0.80;71.20;;;;;;6317509;28;20303;-72
2021/12/22 00:13:12;;;;;;;11.20;7.67;;;0.90;70.90;;;;;;6334137;28;20183;-72
2021/12/22 00:16:13;;;;;;;12.03;7.30;;;0.80;70.00;;;;;;6317912;28;20195;-72
2021/12/22 00:19:14;;;;;;;11.27;7.43;;;0.90;70.30;;;;;;6333701;28;20190;-73
2021/12/22 00:22:15;;;;;;;11.53;7.27;;;0.80;71.60;;;;;;6317468;28;20182;-73
2021/12/22 00:25:16;;;;;;;10.37;6.97;;;0.80;70.70;;;;;;6317185;28;20280;-71
2021/12/22 00:28:17;;;;;;;9.73;7.37;;;0.80;71.50;;;;;;6324258;28;20199;-71
2021/12/22 00:31:20;;;;;;;8.40;7.50;;;0.80;68.70;;;;;;6292501;28;20212;-71
2021/12/22 00:34:21;;;;;;;13.00;7.60;;;0.80;69.90;;;;;;6308455;28;20201;-71
2021/12/22 00:37:28;;;;;;;8.93;6.40;;;0.90;69.00;;;;;;6292216;28;20234;-71
2021/12/22 00:40:29;;;;;;;11.47;6.77;;;0.90;70.70;;;;;;6348649;28;20267;-71
2021/12/22 00:43:29;;;;;;;10.80;7.23;;;0.80;72.50;;;;;;6316524;28;20199;-71
2021/12/22 00:46:30;;;;;;;9.70;6.53;;;0.80;72.40;;;;;;6301774;28;20249;-71
2021/12/22 00:49:31;;;;;;;9.23;6.70;;;0.80;73.10;;;;;;6308597;28;20673;-71
2021/12/22 00:52:32;;;;;;;7.90;6.47;;;0.80;72.60;;;;;;6325454;28;20220;-74
2021/12/22 00:55:33;;;;;;;10.67;7.33;;;0.80;71.80;;;;;;6308538;28;20185;-74
2021/12/22 00:58:34;;;;;;;10.90;7.60;;;0.80;71.30;;;;;;6307752;28;20187;-74
2021/12/22 01:01:35;;;;;;;15.37;9.37;;;0.80;71.80;;;;;;6291139;28;20204;-74
2021/12/22 01:04:37;;;;;;;21.50;13.77;;;0.80;72.00;;;;;;6329924;28;20196;-74
2021/12/22 01:07:38;;;;;;;20.87;12.13;;;0.80;71.90;;;;;;6308606;28;20318;-74
2021/12/22 01:10:39;;;;;;;17.23;10.30;;;0.80;71.30;;;;;;6290723;28;20244;-74
2021/12/22 01:13:40;;;;;;;14.90;8.20;;;0.80;70.80;;;;;;6306598;28;20180;-74
2021/12/22 01:16:47;;;;;;;12.20;8.73;;;0.80;71.50;;;;;;6306146;28;20195;-74
2021/12/22 01:19:59;;;;;;;14.23;9.17;;;0.80;71.20;;;;;;6322409;28;20216;-74
2021/12/22 01:23:03;;;;;;;15.97;10.10;;;0.80;71.10;;;;;;6310507;28;20283;-71
2021/12/22 01:26:05;;;;;;;13.87;9.60;;;0.80;71.20;;;;;;6299743;28;20203;-68
2021/12/22 01:29:05;;;;;;;11.17;8.20;;;0.80;71.90;;;;;;6313060;28;20202;-68
2021/12/22 01:32:09;;;;;;;11.57;7.73;;;0.80;70.60;;;;;;6309056;28;20250;-68
2021/12/22 01:35:12;;;;;;;10.03;7.40;;;0.80;70.30;;;;;;6323492;28;20187;-68
2021/12/22 01:38:13;;;;;;;10.70;7.50;;;0.80;70.50;;;;;;6305787;28;20207;-71
2021/12/22 01:41:15;;;;;;;9.60;7.03;;;0.80;71.50;;;;;;6323823;28;20210;-71
2021/12/22 01:44:34;;;;;;;11.57;8.13;;;0.80;71.90;;;;;;6323550;28;20195;-70
2021/12/22 01:51:18;;;;;;;13.03;7.40;;;0.80;72.50;;;;;;6199031;28;20218;-69
2021/12/22 01:54:39;;;;;;;10.37;7.13;;;0.80;69.80;;;;;;6180944;28;20246;-70
2021/12/22 01:57:47;;;;;;;13.33;7.20;;;0.80;71.50;;;;;;6316243;28;20229;-69
2021/12/22 02:00:48;;;;;;;7.70;6.43;;;0.80;71.20;;;;;;6332111;28;20233;-69
2021/12/22 02:03:50;;;;;;;8.40;6.07;;;0.80;71.10;;;;;;6310839;28;20191;-68
2021/12/22 02:06:51;;;;;;;7.93;6.23;;;0.80;71.90;;;;;;6306798;28;20192;-68
2021/12/22 02:13:06;;;;;;;8.13;5.87;;;0.80;69.40;;;;;;6333685;28;20184;-73
2021/12/22 02:16:12;;;;;;;8.53;5.80;;;0.80;70.20;;;;;;6314956;28;20200;-70
2021/12/22 02:19:14;;;;;;;8.47;6.20;;;0.80;69.90;;;;;;6332137;28;20302;-69
2021/12/22 02:22:17;;;;;;;8.93;6.50;;;0.90;67.60;;;;;;6306271;28;20195;-69
2021/12/22 02:25:29;;;;;;;8.30;5.97;;;0.90;68.00;;;;;;6306237;28;20661;-69
2021/12/22 02:28:33;;;;;;;8.17;6.03;;;0.90;67.50;;;;;;6330330;28;20195;-69
2021/12/22 02:31:41;;;;;;;9.30;7.03;;;0.90;68.50;;;;;;6331961;28;20223;-71
2021/12/22 02:34:45;;;;;;;9.63;6.37;;;0.80;66.10;;;;;;6325796;28;20283;-71
2021/12/22 02:37:46;;;;;;;8.97;6.53;;;0.80;68.40;;;;;;6321514;28;20189;-72
2021/12/22 02:40:50;;;;;;;8.90;6.40;;;0.90;66.80;;;;;;6289570;28;20210;-71
2021/12/22 02:43:53;;;;;;;9.13;6.03;;;0.90;70.00;;;;;;6327677;28;20209;-71
2021/12/22 02:46:54;;;;;;;10.23;6.77;;;0.90;71.90;;;;;;6318663;28;20200;-71
2021/12/22 02:49:55;;;;;;;9.37;6.73;;;0.80;70.20;;;;;;6311532;28;20303;-71
2021/12/22 02:53:09;;;;;;;11.10;6.60;;;0.90;69.20;;;;;;6296909;28;20196;-69
2021/12/22 03:06:12;;;;;;;8.10;6.43;;;0.80;68.30;;;;;;6335881;27;20197;-68
2021/12/22 03:09:22;;;;;;;7.87;5.90;;;0.70;69.10;;;;;;6340123;28;20193;-70
2021/12/22 03:12:23;;;;;;;8.07;6.00;;;0.80;69.30;;;;;;6335561;28;20204;-68
2021/12/22 03:15:24;;;;;;;10.10;6.40;;;0.70;70.50;;;;;;6293654;28;20188;-68
2021/12/22 03:18:25;;;;;;;8.00;6.10;;;0.70;70.40;;;;;;6318453;28;20252;-69
2021/12/22 03:21:26;;;;;;;11.13;6.77;;;0.80;71.30;;;;;;6335897;28;20194;-68
2021/12/22 03:24:28;;;;;;;11.73;7.10;;;0.80;70.10;;;;;;6334896;28;20293;-70
2021/12/22 03:27:29;;;;;;;11.40;7.30;;;0.80;69.20;;;;;;6335787;28;20179;-69
2021/12/22 03:30:30;;;;;;;8.80;6.13;;;0.80;68.70;;;;;;6317532;28;20251;-68
2021/12/22 03:33:31;;;;;;;9.50;6.90;;;0.80;69.20;;;;;;6327606;28;20187;-68
2021/12/22 03:36:33;;;;;;;7.47;6.37;;;0.70;69.80;;;;;;6316143;28;20615;-68
2021/12/22 03:39:34;;;;;;;9.30;6.50;;;0.70;69.40;;;;;;6338974;27;20187;-68
2021/12/22 03:42:34;;;;;;;11.00;6.77;;;0.80;69.10;;;;;;6318122;28;20190;-68
2021/12/22 03:45:35;;;;;;;13.80;7.20;;;0.70;69.70;;;;;;6334409;28;20194;-68
2021/12/22 03:48:36;;;;;;;8.13;6.80;;;0.80;68.70;;;;;;6318067;28;20199;-71
2021/12/22 03:51:37;;;;;;;8.37;6.73;;;0.80;68.10;;;;;;6283304;28;20221;-70
2021/12/22 03:54:38;;;;;;;10.10;6.93;;;0.80;68.50;;;;;;6311853;28;20191;-69
2021/12/22 03:57:39;;;;;;;9.60;7.60;;;0.80;67.80;;;;;;6320139;28;20191;-69
2021/12/22 04:00:42;;;;;;;9.20;6.87;;;0.80;66.70;;;;;;6340604;28;20336;-71
2021/12/22 04:03:46;;;;;;;11.50;8.07;;;0.80;68.40;;;;;;6305888;28;20206;-73
2021/12/22 04:06:49;;;;;;;11.63;7.70;;;0.70;66.70;;;;;;6321319;28;20189;-75
2021/12/22 04:09:52;;;;;;;11.30;8.00;;;0.80;67.90;;;;;;6293739;28;20243;-75
2021/12/22 04:12:55;;;;;;;8.80;6.87;;;0.70;69.40;;;;;;6313786;28;20221;-75
2021/12/22 04:15:56;;;;;;;11.57;7.47;;;0.60;70.50;;;;;;6319746;28;20188;-75
2021/12/22 04:18:56;;;;;;;8.97;6.57;;;0.60;70.50;;;;;;6337375;28;20198;-72
2021/12/22 04:21:57;;;;;;;9.37;6.57;;;0.60;71.70;;;;;;6311618;28;20235;-73
2021/12/22 04:24:58;;;;;;;7.90;6.47;;;0.60;72.00;;;;;;6307849;28;20184;-72
2021/12/22 04:28:07;;;;;;;10.57;7.33;;;0.60;71.00;;;;;;6316756;28;20257;-72
2021/12/22 04:31:09;;;;;;;11.13;7.77;;;0.70;69.90;;;;;;6306710;28;20215;-75
2021/12/22 04:34:10;;;;;;;11.63;7.27;;;0.60;69.20;;;;;;6289419;28;20232;-75
2021/12/22 04:37:10;;;;;;;9.17;7.53;;;0.60;69.60;;;;;;6317141;28;20189;-75
2021/12/22 04:40:12;;;;;;;10.73;7.53;;;0.60;69.80;;;;;;6353754;27;20646;-74
2021/12/22 04:43:13;;;;;;;11.83;7.90;;;0.60;70.50;;;;;;6354159;27;20200;-75
2021/12/22 04:46:14;;;;;;;13.20;8.30;;;0.50;71.90;;;;;;6330286;28;20235;-75
2021/12/22 04:49:14;;;;;;;13.00;8.50;;;0.40;70.80;;;;;;6342275;28;20198;-76
2021/12/22 04:52:19;;;;;;;9.73;7.13;;;0.50;70.40;;;;;;6342004;27;20210;-75
2021/12/22 04:55:20;;;;;;;14.03;8.70;;;0.50;70.50;;;;;;6345403;27;20192;-75
2021/12/22 04:58:20;;;;;;;14.33;8.53;;;0.50;71.20;;;;;;6367454;27;20198;-75
2021/12/22 05:01:21;;;;;;;11.13;8.30;;;0.50;69.90;;;;;;6366592;27;20188;-75
2021/12/22 05:04:22;;;;;;;11.80;7.77;;;0.50;71.60;;;;;;6357199;27;20226;-74
2021/12/22 05:07:23;;;;;;;12.70;8.93;;;0.40;72.30;;;;;;6356182;27;20195;-73
2021/12/22 05:10:25;;;;;;;9.20;7.40;;;0.40;70.50;;;;;;6307680;28;20236;-74
2021/12/22 05:13:26;;;;;;;10.03;7.43;;;0.50;70.30;;;;;;6362651;27;20191;-74
2021/12/22 05:16:27;;;;;;;14.97;9.13;;;0.50;71.30;;;;;;6366605;27;20183;-76
2021/12/22 05:19:28;;;;;;;10.07;7.73;;;0.50;70.80;;;;;;6350165;27;20209;-77
2021/12/22 05:22:29;;;;;;;12.27;8.63;;;0.50;71.50;;;;;;6340724;28;20199;-76
2021/12/22 05:25:30;;;;;;;11.90;7.83;;;0.40;72.10;;;;;;6346219;28;20199;-77
2021/12/22 05:28:31;;;;;;;10.57;8.00;;;0.40;71.30;;;;;;6355413;27;20207;-75
2021/12/22 05:31:32;;;;;;;10.67;7.50;;;0.50;71.60;;;;;;6315658;28;20220;-76
2021/12/22 05:34:33;;;;;;;8.87;7.30;;;0.60;71.70;;;;;;6355821;27;20191;-77
2021/12/22 05:37:35;;;;;;;10.50;7.03;;;0.60;71.40;;;;;;6357036;27;20189;-76
2021/12/22 05:40:36;;;;;;;9.07;7.60;;;0.60;71.20;;;;;;6333857;28;20193;-72
2021/12/22 05:43:37;;;;;;;12.07;7.77;;;0.60;71.40;;;;;;6348257;27;20199;-76
2021/12/22 05:46:38;;;;;;;12.57;8.47;;;0.60;72.10;;;;;;6336578;28;20198;-75
2021/12/22 05:49:38;;;;;;;11.73;8.23;;;0.50;72.70;;;;;;6299685;28;20194;-73
2021/12/22 05:52:39;;;;;;;13.37;8.70;;;0.50;71.70;;;;;;6355655;27;20179;-72
2021/12/22 05:55:40;;;;;;;15.90;9.00;;;0.50;71.40;;;;;;6314459;28;20197;-74
2021/12/22 05:58:41;;;;;;;10.00;8.37;;;0.60;71.90;;;;;;6348776;27;20204;-73
2021/12/22 06:01:41;;;;;;;12.10;8.47;;;0.50;70.90;;;;;;6334258;28;20202;-71
2021/12/22 06:04:42;;;;;;;12.83;8.23;;;0.40;71.70;;;;;;6343694;27;20243;-71
2021/12/22 06:07:43;;;;;;;11.67;8.33;;;0.30;73.50;;;;;;6363020;27;20200;-75
2021/12/22 06:10:44;;;;;;;15.17;10.93;;;0.30;71.90;;;;;;6347668;27;20347;-75
2021/12/22 06:13:45;;;;;;;12.57;9.27;;;0.30;71.10;;;;;;6329741;28;20218;-73
2021/12/22 06:16:46;;;;;;;14.53;10.27;;;0.30;71.90;;;;;;6352522;27;20232;-74
2021/12/22 06:19:47;;;;;;;17.53;9.33;;;0.30;72.90;;;;;;6305124;28;20222;-72
2021/12/22 06:22:48;;;;;;;13.37;10.50;;;0.40;72.60;;;;;;6355177;27;20234;-73
2021/12/22 06:25:49;;;;;;;17.33;10.80;;;0.40;72.10;;;;;;6350124;28;20192;-75
2021/12/22 06:28:50;;;;;;;16.37;10.37;;;0.40;71.60;;;;;;6306108;28;20188;-75
2021/12/22 06:31:52;;;;;;;12.67;8.93;;;0.40;70.90;;;;;;6333142;28;20206;-64
2021/12/22 06:34:53;;;;;;;14.43;8.60;;;0.50;69.00;;;;;;6350806;28;20191;-64
2021/12/22 06:37:54;;;;;;;13.27;8.40;;;0.50;68.70;;;;;;6363299;27;20192;-64
2021/12/22 06:40:56;;;;;;;16.20;8.10;;;0.50;67.70;;;;;;6353229;28;20278;-65
2021/12/22 06:43:56;;;;;;;14.97;9.37;;;0.50;69.00;;;;;;6347294;28;20193;-65
2021/12/22 06:46:57;;;;;;;14.90;9.60;;;0.60;68.10;;;;;;6353086;28;20199;-65
2021/12/22 06:49:58;;;;;;;15.20;9.13;;;0.50;68.10;;;;;;6323886;28;20254;-65
2021/12/22 06:52:59;;;;;;;11.40;8.73;;;0.60;68.70;;;;;;6351147;27;20221;-65
2021/12/22 06:56:00;;;;;;;15.97;11.17;;;0.50;68.40;;;;;;6348687;28;20266;-65
2021/12/22 06:59:02;;;;;;;15.90;10.40;;;0.50;68.90;;;;;;6327756;28;20241;-65
2021/12/22 07:02:03;;;;;;;12.77;10.40;;;0.50;68.70;;;;;;6297257;28;20253;-65
2021/12/22 07:05:09;;;;;;;15.77;10.43;;;0.50;69.20;;;;;;6305898;28;20199;-65
2021/12/22 07:08:10;;;;;;;16.23;11.50;;;0.50;68.60;;;;;;6338900;28;20204;-65
2021/12/22 07:11:12;;;;;;;14.60;11.00;;;0.50;68.50;;;;;;6320002;28;20239;-62
2021/12/22 07:14:13;;;;;;;15.03;10.57;;;0.50;68.30;;;;;;6337639;28;20286;-65
2021/12/22 07:17:14;;;;;;;14.70;10.03;;;0.50;68.50;;;;;;6345162;28;20206;-65
2021/12/22 07:20:15;;;;;;;10.73;8.70;;;0.60;68.00;;;;;;6311306;28;20191;-65
2021/12/22 07:23:16;;;;;;;12.07;9.33;;;0.50;67.40;;;;;;6380194;27;20230;-65
2021/12/22 07:26:18;;;;;;;17.37;10.57;;;0.50;67.40;;;;;;6355166;28;20307;-65
2021/12/22 07:29:18;;;;;;;11.33;8.90;;;0.50;68.40;;;;;;6304261;28;20330;-65
2021/12/22 07:32:19;;;;;;;13.90;7.87;;;0.50;70.40;;;;;;6366495;27;20248;-65
2021/12/22 07:35:38;;;;;;;13.17;8.30;;;0.50;69.90;;;;;;6366075;27;20189;-65
2021/12/22 07:38:38;;;;;;;13.57;9.43;;;0.40;69.20;;;;;;6383694;27;20197;-65
2021/12/22 07:41:39;;;;;;;12.60;7.77;;;0.40;71.20;;;;;;6332469;28;20207;-65
2021/12/22 07:44:40;;;;;;;13.57;7.97;;;0.50;71.40;;;;;;6355899;27;20239;-65
2021/12/22 07:47:41;;;;;;;10.60;7.00;;;0.60;68.70;;;;;;6333189;28;20200;-65
2021/12/22 07:50:42;;;;;;;10.10;7.17;;;0.70;68.10;;;;;;6342333;27;20220;-65
2021/12/22 07:53:43;;;;;;;8.10;6.50;;;0.70;66.40;;;;;;6344643;28;20223;-65
2021/12/22 07:56:44;;;;;;;8.80;7.57;;;0.80;64.80;;;;;;6315278;28;20221;-65
2021/12/22 07:59:44;;;;;;;11.07;7.23;;;0.80;64.90;;;;;;6338803;28;20185;-65
2021/12/22 08:02:45;;;;;;;13.20;6.27;;;0.80;66.50;;;;;;6342139;28;20227;-65
2021/12/22 08:05:46;;;;;;;9.77;6.70;;;0.90;64.60;;;;;;6365523;27;20221;-62
2021/12/22 08:08:47;;;;;;;9.30;7.27;;;0.90;65.50;;;;;;6332961;28;20191;-62
2021/12/22 08:11:48;;;;;;;7.60;6.50;;;0.90;66.40;;;;;;6323812;28;20240;-65
2021/12/22 08:14:49;;;;;;;16.13;6.97;;;0.90;64.00;;;;;;6352884;27;20243;-65
2021/12/22 08:17:50;;;;;;;12.50;7.43;;;1.00;64.10;;;;;;6366783;27;20249;-65
2021/12/22 08:20:51;;;;;;;11.40;7.47;;;1.00;64.20;;;;;;6366372;27;20192;-65
2021/12/22 08:23:52;;;;;;;11.63;7.33;;;1.00;63.30;;;;;;6365602;27;20187;-65
2021/12/22 08:26:53;;;;;;;9.27;6.80;;;0.90;63.10;;;;;;6364868;27;20204;-62
2021/12/22 08:29:54;;;;;;;10.40;7.17;;;1.00;65.20;;;;;;6381941;27;20682;-65
2021/12/22 08:32:56;;;;;;;11.23;6.73;;;1.00;63.80;;;;;;6345173;27;20206;-62
2021/12/22 08:39:18;;;;;;;9.80;6.70;;;1.10;62.50;;;;;;6359228;27;20231;-65
2021/12/22 08:42:21;;;;;;;9.67;6.57;;;1.10;62.10;;;;;;6345262;28;20278;-65
2021/12/22 08:45:22;;;;;;;9.63;6.50;;;1.10;61.00;;;;;;6382939;27;20245;-65
2021/12/22 08:48:23;;;;;;;10.80;6.63;;;1.20;61.70;;;;;;6381774;27;20196;-65
2021/12/22 08:51:24;;;;;;;10.40;6.53;;;1.20;61.30;;;;;;6368427;27;20269;-65
2021/12/22 08:54:26;;;;;;;11.80;5.67;;;1.10;62.40;;;;;;6333874;28;20194;-64
2021/12/22 08:57:27;;;;;;;8.40;5.73;;;1.10;62.70;;;;;;6331529;28;20184;-65
2021/12/22 09:00:28;;;;;;;11.80;6.57;;;1.10;61.30;;;;;;6365822;27;20668;-65
2021/12/22 09:03:28;;;;;;;12.87;7.23;;;1.20;61.70;;;;;;6348093;27;20224;-65
2021/12/22 09:06:29;;;;;;;9.50;5.90;;;1.20;61.20;;;;;;6342934;28;20206;-65
2021/12/22 09:09:31;;;;;;;11.07;6.50;;;1.10;60.70;;;;;;6362133;27;20365;-65
2021/12/22 09:12:32;;;;;;;13.70;6.87;;;1.20;61.20;;;;;;6364939;27;20248;-65
2021/12/22 09:15:33;;;;;;;9.13;6.20;;;1.30;61.00;;;;;;6364413;27;20192;-62
2021/12/22 09:18:35;;;;;;;7.93;6.10;;;1.30;60.50;;;;;;6340587;28;20455;-62
2021/12/22 09:21:37;;;;;;;11.43;6.57;;;1.30;59.90;;;;;;6357325;27;20200;-62
2021/12/22 09:24:37;;;;;;;8.30;6.30;;;1.30;62.50;;;;;;6336018;28;20300;-62
2021/12/22 09:27:39;;;;;;;11.07;6.60;;;1.40;60.40;;;;;;6353816;27;20192;-62
2021/12/22 09:30:44;;;;;;;9.77;6.60;;;1.40;60.40;;;;;;6333793;28;20207;-62
2021/12/22 09:33:45;;;;;;;11.57;6.33;;;1.40;59.10;;;;;;6346376;27;20266;-62
2021/12/22 09:36:46;;;;;;;12.67;7.13;;;1.50;59.20;;;;;;6336387;28;20726;-62
2021/12/22 09:39:47;;;;;;;10.37;6.27;;;1.40;59.30;;;;;;6358906;27;20351;-65
2021/12/22 09:42:47;;;;;;;12.83;6.93;;;1.50;58.70;;;;;;6322675;28;20297;-65
2021/12/22 09:45:54;;;;;;;10.67;7.03;;;1.30;60.30;;;;;;6329732;28;20191;-65
2021/12/22 09:49:06;;;;;;;8.70;5.63;;;1.30;61.20;;;;;;6338384;28;20192;-62
2021/12/22 09:52:16;;;;;;;10.07;6.33;;;1.40;59.50;;;;;;6364764;27;20227;-62
2021/12/22 09:55:17;;;;;;;9.63;6.20;;;1.60;59.70;;;;;;6363388;27;20275;-63
2021/12/22 09:58:18;;;;;;;10.60;5.97;;;1.60;57.90;;;;;;6335775;28;20194;-64
2021/12/22 10:01:23;;;;;;;9.13;5.10;;;1.80;57.70;;;;;;6362741;27;20231;-64
2021/12/22 10:04:23;;;;;;;7.47;5.13;;;1.80;56.90;;;;;;6322459;28;20315;-64
2021/12/22 10:07:29;;;;;;;8.10;5.20;;;1.90;57.00;;;;;;6327529;28;20203;-64
2021/12/22 10:10:30;;;;;;;9.13;5.23;;;1.90;56.80;;;;;;6356355;27;20303;-64
2021/12/22 10:13:33;;;;;;;6.73;5.13;;;1.70;57.00;;;;;;6322144;28;20204;-64
2021/12/22 10:16:49;;;;;;;9.97;6.67;;;1.80;57.90;;;;;;6321529;28;20220;-64
2021/12/22 10:19:53;;;;;;;7.60;5.93;;;1.80;58.40;;;;;;6340293;28;20188;-64
2021/12/22 10:22:53;;;;;;;8.10;5.03;;;1.80;58.20;;;;;;6353475;27;20216;-65
2021/12/22 10:26:04;;;;;;;8.07;5.40;;;1.90;57.30;;;;;;6329580;28;20202;-64
2021/12/22 10:29:07;;;;;;;8.70;5.90;;;1.90;57.30;;;;;;6367429;27;20193;-64
2021/12/22 10:32:11;;;;;;;7.07;5.13;;;2.00;58.40;;;;;;6322052;28;20211;-64
2021/12/22 10:35:12;;;;;;;9.10;5.90;;;2.00;57.50;;;;;;6332899;28;20188;-64
2021/12/22 10:38:15;;;;;;;11.90;6.10;;;2.00;55.00;;;;;;6362157;27;20187;-64
2021/12/22 10:41:16;;;;;;;7.77;6.47;;;1.70;56.40;;;;;;6328203;28;20216;-64
2021/12/22 10:44:17;;;;;;;7.53;5.70;;;1.60;56.10;;;;;;6380648;27;20250;-64
2021/12/22 10:47:32;;;;;;;9.43;5.57;;;1.80;56.60;;;;;;6341303;28;20192;-64
2021/12/22 10:50:32;;;;;;;7.03;5.73;;;1.80;55.70;;;;;;6321888;28;20296;-64
2021/12/22 10:53:47;;;;;;;6.70;5.50;;;1.80;55.70;;;;;;6340374;28;20191;-64
2021/12/22 10:56:48;;;;;;;9.53;5.40;;;1.90;55.70;;;;;;6340069;28;20185;-64
2021/12/22 10:59:50;;;;;;;14.57;7.83;;;1.90;55.50;;;;;;6333315;28;20248;-64
2021/12/22 11:03:14;;;;;;;7.30;6.17;;;2.00;56.40;;;;;;6339810;28;20192;-65
2021/12/22 11:06:26;;;;;;;10.63;5.80;;;1.90;58.20;;;;;;6345290;27;20192;-64
2021/12/22 11:09:29;;;;;;;5.97;4.97;;;1.90;55.20;;;;;;6335294;28;20227;-65
2021/12/22 11:12:35;;;;;;;9.47;6.03;;;1.90;55.60;;;;;;6346944;28;20220;-65
2021/12/22 11:15:43;;;;;;;10.83;5.80;;;1.90;54.50;;;;;;6361920;27;20181;-67
2021/12/22 11:18:46;;;;;;;7.13;5.80;;;2.00;56.10;;;;;;6327401;28;20263;-64
2021/12/22 11:21:58;;;;;;;10.50;5.73;;;2.00;55.10;;;;;;6319232;28;20190;-64
2021/12/22 11:24:59;;;;;;;10.63;5.97;;;2.00;54.50;;;;;;6345210;28;20211;-64
2021/12/22 11:27:59;;;;;;;8.40;6.03;;;2.00;54.40;;;;;;6355329;27;20196;-65
2021/12/22 11:31:02;;;;;;;7.70;6.43;;;2.10;54.90;;;;;;6327646;28;20217;-64
2021/12/22 11:34:03;;;;;;;8.40;5.73;;;2.10;55.10;;;;;;6330317;28;20189;-64
2021/12/22 11:37:07;;;;;;;8.67;6.17;;;2.00;53.80;;;;;;6365345;27;20191;-63
2021/12/22 11:40:10;;;;;;;7.90;6.00;;;2.10;55.00;;;;;;6331562;28;20180;-64
2021/12/22 11:43:11;;;;;;;9.17;5.73;;;2.10;57.30;;;;;;6345873;27;20761;-62
2021/12/22 11:46:13;;;;;;;11.07;6.63;;;2.20;55.10;;;;;;6348885;27;20204;-60
2021/12/22 11:49:18;;;;;;;7.40;5.93;;;2.30;57.20;;;;;;6344763;28;20216;-60
2021/12/22 11:52:43;;;;;;;9.80;6.63;;;2.30;56.30;;;;;;6374445;27;20212;-62
2021/12/22 11:55:50;;;;;;;12.77;6.93;;;2.20;54.60;;;;;;6364840;27;20188;-61
2021/12/22 11:58:51;;;;;;;9.63;5.87;;;2.20;54.60;;;;;;6326286;28;20215;-62
2021/12/22 12:02:21;;;;;;;7.87;6.43;;;2.10;53.90;;;;;;6316366;28;20196;-64
2021/12/22 12:05:30;;;;;;;9.43;6.47;;;1.90;55.20;;;;;;6380250;27;20194;-64
2021/12/22 12:08:58;;;;;;;10.07;6.03;;;2.00;56.40;;;;;;6378914;27;20200;-64
2021/12/22 12:11:59;;;;;;;7.40;5.63;;;2.20;57.00;;;;;;6367895;27;20233;-64
2021/12/22 12:15:11;;;;;;;10.70;6.87;;;2.10;55.00;;;;;;6349599;27;20185;-64
2021/12/22 12:22:04;;;;;;;10.53;6.87;;;2.10;57.70;;;;;;6337784;28;20179;-64
2021/12/22 12:25:10;;;;;;;11.47;6.63;;;2.10;56.50;;;;;;6371660;27;20235;-64
2021/12/22 12:28:18;;;;;;;8.73;6.03;;;2.10;56.00;;;;;;6311687;28;20196;-64
2021/12/22 12:31:40;;;;;;;10.77;6.43;;;2.10;56.00;;;;;;6374526;27;20208;-64
2021/12/22 12:34:43;;;;;;;9.07;6.30;;;2.00;56.30;;;;;;6385366;27;20255;-64
2021/12/22 12:38:03;;;;;;;11.60;6.67;;;2.10;55.50;;;;;;6360773;27;20180;-63
2021/12/22 12:41:14;;;;;;;8.60;6.77;;;2.20;55.80;;;;;;6384274;27;20271;-64
2021/12/22 12:44:27;;;;;;;10.27;6.20;;;2.20;54.70;;;;;;6335858;28;20242;-64
2021/12/22 12:47:28;;;;;;;10.40;6.17;;;2.20;55.10;;;;;;6309414;28;20231;-63
2021/12/22 12:50:29;;;;;;;13.07;6.30;;;2.20;55.90;;;;;;6362865;27;20600;-63
2021/12/22 12:53:30;;;;;;;9.47;6.67;;;2.30;56.10;;;;;;6330030;28;20653;-64
2021/12/22 12:56:31;;;;;;;10.33;6.37;;;2.30;55.80;;;;;;6328648;28;20191;-63
2021/12/22 12:59:38;;;;;;;7.57;6.67;;;2.30;54.10;;;;;;6346700;28;20188;-64
2021/12/22 13:02:38;;;;;;;10.67;6.43;;;2.10;55.80;;;;;;6342782;27;20268;-67
2021/12/22 13:05:40;;;;;;;9.57;6.63;;;2.10;54.40;;;;;;6325123;28;20192;-64
2021/12/22 13:08:41;;;;;;;12.23;6.67;;;1.80;55.60;;;;;;6348870;27;20219;-64
2021/12/22 13:12:10;;;;;;;8.50;6.53;;;1.90;55.60;;;;;;6307586;28;20243;-64
2021/12/22 13:18:36;;;;;;;9.03;6.43;;;2.00;55.80;;;;;;6342190;27;20193;-64
2021/12/22 13:21:37;;;;;;;13.13;7.10;;;1.90;55.20;;;;;;6341465;28;20195;-64
2021/12/22 13:24:37;;;;;;;9.97;7.67;;;1.80;56.00;;;;;;6352118;27;20203;-64
2021/12/22 13:27:42;;;;;;;11.57;8.53;;;1.80;56.20;;;;;;6331646;28;20186;-63
2021/12/22 13:30:54;;;;;;;14.07;8.73;;;1.80;56.90;;;;;;6349737;28;20212;-62
2021/12/22 13:34:02;;;;;;;11.80;8.60;;;1.80;57.40;;;;;;6361464;27;20240;-63
2021/12/22 13:37:03;;;;;;;12.90;8.83;;;1.70;57.20;;;;;;6366518;27;20284;-64
2021/12/22 13:40:04;;;;;;;10.80;8.23;;;1.80;57.10;;;;;;6366101;27;20198;-67
2021/12/22 13:43:07;;;;;;;15.67;9.37;;;2.00;58.40;;;;;;6323409;28;20188;-68
2021/12/22 13:46:08;;;;;;;11.23;7.90;;;2.20;57.50;;;;;;6323733;28;20231;-67
2021/12/22 13:49:13;;;;;;;13.00;7.73;;;2.30;55.50;;;;;;6323563;28;20211;-67
2021/12/22 13:52:13;;;;;;;11.70;8.73;;;2.30;55.80;;;;;;6373273;27;20208;-67
2021/12/22 13:55:14;;;;;;;14.17;7.83;;;2.20;54.90;;;;;;6307118;28;20234;-66
2021/12/22 13:58:31;;;;;;;9.90;8.10;;;2.30;55.30;;;;;;6308209;28;20196;-66
2021/12/22 14:01:35;;;;;;;13.97;8.13;;;2.40;55.60;;;;;;6326707;28;20184;-66
2021/12/22 14:04:38;;;;;;;10.40;8.03;;;2.40;56.20;;;;;;6334169;28;20191;-67
2021/12/22 14:07:39;;;;;;;10.13;7.37;;;2.40;56.40;;;;;;6338183;28;20211;-64
2021/12/22 14:10:40;;;;;;;9.93;8.07;;;2.40;56.00;;;;;;6358101;27;20235;-64
2021/12/22 14:13:41;;;;;;;12.73;8.33;;;2.70;55.70;;;;;;6332135;28;20191;-64
2021/12/22 14:16:41;;;;;;;9.13;7.87;;;2.70;56.10;;;;;;6314587;28;20239;-65
2021/12/22 14:19:57;;;;;;;12.80;8.17;;;2.80;56.70;;;;;;6330613;28;21319;-65
2021/12/22 14:23:02;;;;;;;8.73;7.30;;;2.60;53.40;;;;;;6362994;27;20207;-66
2021/12/22 14:26:07;;;;;;;9.00;7.90;;;2.30;55.80;;;;;;6303615;28;20195;-65
2021/12/22 14:29:09;;;;;;;12.00;8.20;;;2.20;56.60;;;;;;6344173;28;20191;-64
2021/12/22 14:32:10;;;;;;;10.70;8.30;;;2.30;56.30;;;;;;6331123;28;20220;-64
2021/12/22 14:35:13;;;;;;;9.43;8.43;;;2.30;55.80;;;;;;6345787;28;20218;-65
2021/12/22 14:38:22;;;;;;;11.97;8.63;;;2.20;56.80;;;;;;6340400;28;20238;-66
2021/12/22 14:41:27;;;;;;;12.47;9.00;;;2.20;56.70;;;;;;6343234;28;20196;-65
2021/12/22 14:44:28;;;;;;;10.43;8.13;;;1.90;58.30;;;;;;6328867;28;20198;-66
2021/12/22 14:47:29;;;;;;;13.30;9.17;;;1.80;58.60;;;;;;6319278;28;20187;-66
2021/12/22 14:50:30;;;;;;;12.37;8.77;;;1.60;56.20;;;;;;6370920;27;20215;-66
2021/12/22 14:53:46;;;;;;;11.63;8.00;;;1.50;58.00;;;;;;6370375;27;20188;-66
2021/12/22 14:56:52;;;;;;;10.03;8.20;;;1.30;59.00;;;;;;6361466;27;20279;-66
2021/12/22 14:59:53;;;;;;;10.13;8.20;;;1.30;59.40;;;;;;6350754;27;20192;-66
2021/12/22 15:02:53;;;;;;;13.07;9.33;;;1.30;59.20;;;;;;6353631;27;20198;-66
2021/12/22 15:06:19;;;;;;;10.47;8.50;;;1.10;59.90;;;;;;6355344;27;20191;-66
2021/12/22 15:09:20;;;;;;;13.00;8.30;;;1.00;60.90;;;;;;6332240;28;20189;-66
2021/12/22 15:12:21;;;;;;;13.83;8.97;;;0.90;60.20;;;;;;6359051;27;20734;-66
2021/12/22 15:15:22;;;;;;;15.93;9.43;;;0.80;62.20;;;;;;6364836;27;20196;-66
2021/12/22 15:18:23;;;;;;;14.17;8.27;;;0.60;62.30;;;;;;6349295;28;20196;-66
2021/12/22 15:21:26;;;;;;;12.03;8.37;;;0.60;61.20;;;;;;6367139;27;20294;-66
2021/12/22 15:24:27;;;;;;;11.73;9.03;;;0.50;61.90;;;;;;6334345;28;20182;-66
2021/12/22 15:27:28;;;;;;;15.30;9.13;;;0.40;62.80;;;;;;6325954;28;20203;-67
2021/12/22 15:30:28;;;;;;;15.03;8.90;;;0.30;62.50;;;;;;6316028;28;20205;-66
2021/12/22 15:33:32;;;;;;;10.90;8.60;;;0.20;63.00;;;;;;6354826;27;20186;-66
2021/12/22 15:36:33;;;;;;;12.17;8.63;;;0.10;64.10;;;;;;6387225;27;20198;-66
2021/12/22 15:39:34;;;;;;;18.73;9.27;;;0.10;64.20;;;;;;6368782;27;20305;-66
2021/12/22 15:42:35;;;;;;;15.90;9.27;;;0.00;63.70;;;;;;6334981;28;20192;-66
2021/12/22 15:45:36;;;;;;;11.17;8.80;;;0.00;64.00;;;;;;6334732;28;20201;-66
2021/12/22 15:48:37;;;;;;;16.97;8.77;;;0.00;64.40;;;;;;6386134;27;20192;-68
2021/12/22 15:51:38;;;;;;;13.57;9.07;;;-3276.70;65.10;;;;;;6363040;27;20215;-68
2021/12/22 15:54:39;;;;;;;12.70;8.67;;;-3276.70;65.40;;;;;;6353823;27;20283;-68
2021/12/22 15:57:40;;;;;;;13.07;8.50;;;-3276.50;67.90;;;;;;6318047;28;20278;-68
2021/12/22 16:00:43;;;;;;;11.63;8.60;;;-3276.30;69.10;;;;;;6366816;27;20195;-68
2021/12/22 16:03:44;;;;;;;13.03;8.83;;;-3276.30;67.90;;;;;;6332705;28;20228;-68
2021/12/22 16:06:45;;;;;;;14.57;9.30;;;-3276.30;66.80;;;;;;6339437;28;20195;-68
2021/12/22 16:09:46;;;;;;;13.43;9.57;;;-3276.20;67.10;;;;;;6334846;28;20324;-68
2021/12/22 16:12:47;;;;;;;12.33;8.97;;;-3276.20;67.00;;;;;;6306390;28;20265;-68
2021/12/22 16:15:48;;;;;;;14.37;10.03;;;-3276.20;67.20;;;;;;6347431;27;20267;-68
2021/12/22 16:18:49;;;;;;;16.53;9.57;;;-3276.10;67.30;;;;;;6340896;28;20184;-68
2021/12/22 16:21:49;;;;;;;11.63;8.10;;;-3276.00;67.30;;;;;;6370876;27;20276;-68